createdAt,value
2017-11-29T00:02:13.142Z,20.57
2017-11-29T00:04:47.899Z,23.07
2017-11-29T00:07:22.813Z,20.60
2017-11-29T00:09:57.741Z,23.20
2017-11-29T00:12:32.597Z,22.00
2017-11-29T00:15:07.330Z,19.77
2017-11-29T00:17:42.258Z,18.80
2017-11-29T00:20:16.709Z,19.83
2017-11-29T00:22:51.693Z,22.70
2017-11-29T00:25:26.215Z,18.90
2017-11-29T00:28:01.453Z,15.07
2017-11-29T00:30:36.045Z,19.93
2017-11-29T00:33:11.031Z,22.67
2017-11-29T00:35:45.605Z,22.07
2017-11-29T00:38:20.478Z,20.90
2017-11-29T00:40:55.137Z,22.23
2017-11-29T00:43:30.370Z,19.83
2017-11-29T00:46:04.785Z,23.10
2017-11-29T00:48:39.849Z,17.93
2017-11-29T00:51:14.652Z,24.67
2017-11-29T00:53:49.226Z,23.67
2017-11-29T00:56:24.165Z,19.73
2017-11-29T00:58:58.721Z,21.93
2017-11-29T01:01:33.447Z,22.13
2017-11-29T01:04:08.104Z,23.07
2017-11-29T01:06:42.917Z,20.17
2017-11-29T01:09:17.617Z,18.87
2017-11-29T01:11:52.449Z,20.67
2017-11-29T01:14:27.373Z,22.00
2017-11-29T01:17:02.105Z,20.10
2017-11-29T01:19:36.934Z,24.10
2017-11-29T01:22:11.810Z,18.97
2017-11-29T01:24:46.769Z,18.90
2017-11-29T01:27:21.870Z,22.90
2017-11-29T01:29:56.666Z,16.83
2017-11-29T01:32:31.518Z,21.83
2017-11-29T01:35:06.653Z,21.77
2017-11-29T01:37:41.513Z,22.37
2017-11-29T01:40:16.109Z,23.10
2017-11-29T01:42:51.365Z,22.10
2017-11-29T01:45:26.209Z,22.10
2017-11-29T01:48:00.866Z,23.47
2017-11-29T01:50:36.081Z,22.27
2017-11-29T01:53:11.238Z,22.40
2017-11-29T01:55:46.258Z,21.87
2017-11-29T01:58:21.051Z,19.10
2017-11-29T02:00:55.698Z,18.17
2017-11-29T02:03:30.398Z,20.40
2017-11-29T02:06:16.347Z,20.70
2017-11-29T02:08:50.829Z,21.57
2017-11-29T02:11:25.735Z,21.87
2017-11-29T02:14:00.657Z,22.57
2017-11-29T02:16:35.643Z,22.57
2017-11-29T02:19:10.647Z,21.30
2017-11-29T02:21:45.249Z,22.63
2017-11-29T02:24:19.869Z,24.47
2017-11-29T02:26:54.550Z,21.37
2017-11-29T02:29:29.153Z,20.90
2017-11-29T02:32:03.650Z,22.83
2017-11-29T02:34:38.654Z,23.00
2017-11-29T02:37:13.366Z,22.10
2017-11-29T02:39:59.458Z,22.03
2017-11-29T02:42:41.937Z,22.13
2017-11-29T02:45:16.334Z,22.07
2017-11-29T02:47:51.213Z,16.90
2017-11-29T02:50:25.970Z,21.27
2017-11-29T02:53:00.825Z,22.00
2017-11-29T02:55:35.246Z,16.40
2017-11-29T02:58:10.205Z,22.70
2017-11-29T03:00:44.927Z,22.97
2017-11-29T03:03:20.222Z,20.30
2017-11-29T03:05:54.885Z,24.53
2017-11-29T03:08:30.168Z,22.60
2017-11-29T03:11:05.106Z,22.70
2017-11-29T03:13:39.617Z,24.40
2017-11-29T03:16:14.757Z,25.17
2017-11-29T03:18:49.610Z,22.70
2017-11-29T03:21:24.300Z,23.50
2017-11-29T03:23:59.092Z,25.13
2017-11-29T03:26:33.757Z,23.07
2017-11-29T03:29:08.549Z,22.17
2017-11-29T03:31:43.550Z,23.60
2017-11-29T03:34:18.252Z,25.40
2017-11-29T03:36:53.185Z,24.67
2017-11-29T03:39:28.166Z,22.93
2017-11-29T03:42:03.064Z,24.27
2017-11-29T03:44:38.161Z,24.40
2017-11-29T03:47:13.098Z,19.63
2017-11-29T03:49:47.873Z,23.40
2017-11-29T03:52:22.809Z,22.33
2017-11-29T03:54:57.629Z,23.37
2017-11-29T03:57:32.563Z,24.20
2017-11-29T04:00:07.386Z,23.90
2017-11-29T04:02:42.415Z,24.27
2017-11-29T04:05:17.546Z,23.40
2017-11-29T04:07:52.422Z,24.93
2017-11-29T04:10:26.864Z,24.90
2017-11-29T04:13:01.881Z,25.07
2017-11-29T04:15:37.004Z,25.97
2017-11-29T04:18:11.609Z,24.57
2017-11-29T04:20:46.337Z,23.77
2017-11-29T04:23:21.147Z,24.80
2017-11-29T04:25:56.222Z,21.93
2017-11-29T04:28:30.722Z,25.70
2017-11-29T04:31:05.722Z,25.30
2017-11-29T04:33:40.507Z,26.60
2017-11-29T04:36:15.558Z,27.33
2017-11-29T04:38:50.333Z,25.87
2017-11-29T04:41:25.236Z,24.87
2017-11-29T04:43:59.904Z,22.90
2017-11-29T04:46:34.870Z,24.60
2017-11-29T04:49:09.405Z,24.40
2017-11-29T04:51:44.325Z,24.53
2017-11-29T04:54:19.318Z,24.67
2017-11-29T04:56:54.113Z,25.33
2017-11-29T04:59:28.479Z,24.27
2017-11-29T05:02:03.313Z,25.33
2017-11-29T05:04:37.810Z,25.03
2017-11-29T05:07:12.662Z,26.23
2017-11-29T05:09:47.442Z,25.27
2017-11-29T05:12:21.542Z,23.17
2017-11-29T05:14:56.571Z,25.50
2017-11-29T05:17:31.085Z,24.20
2017-11-29T05:20:05.748Z,24.23
2017-11-29T05:22:40.681Z,29.90
2017-11-29T05:25:15.361Z,23.33
2017-11-29T05:27:50.425Z,26.37
2017-11-29T05:30:25.230Z,25.80
2017-11-29T05:32:59.885Z,25.20
2017-11-29T05:35:34.618Z,25.57
2017-11-29T05:38:09.222Z,26.00
2017-11-29T05:40:43.903Z,25.20
2017-11-29T05:43:18.594Z,26.63
2017-11-29T05:45:53.354Z,30.57
2017-11-29T05:48:27.928Z,28.00
2017-11-29T05:51:02.546Z,28.80
2017-11-29T05:53:37.281Z,28.37
2017-11-29T05:56:12.075Z,23.30
2017-11-29T05:58:47.285Z,25.80
2017-11-29T06:01:21.658Z,27.30
2017-11-29T06:03:56.264Z,27.93
2017-11-29T06:06:31.059Z,28.80
2017-11-29T06:09:05.842Z,25.83
2017-11-29T06:11:40.595Z,23.17
2017-11-29T06:14:15.426Z,28.47
2017-11-29T06:16:50.097Z,38.67
2017-11-29T06:19:25.207Z,35.60
2017-11-29T06:21:59.589Z,34.07
2017-11-29T06:24:34.595Z,29.00
2017-11-29T06:27:09.421Z,26.33
2017-11-29T06:29:44.024Z,29.37
2017-11-29T06:32:19.279Z,26.97
2017-11-29T06:34:54.406Z,27.27
2017-11-29T06:37:29.165Z,24.57
2017-11-29T06:40:03.942Z,25.97
2017-11-29T06:42:38.786Z,23.70
2017-11-29T06:45:13.405Z,26.70
2017-11-29T06:47:48.065Z,24.97
2017-11-29T06:50:23.087Z,24.97
2017-11-29T06:52:57.638Z,24.03
2017-11-29T06:55:32.665Z,24.70
2017-11-29T06:58:07.366Z,24.23
2017-11-29T07:00:42.150Z,24.60
2017-11-29T07:03:16.955Z,26.40
2017-11-29T07:05:51.726Z,24.67
2017-11-29T07:08:26.779Z,23.83
2017-11-29T07:11:01.606Z,25.13
2017-11-29T07:13:36.662Z,23.00
2017-11-29T07:16:11.220Z,24.47
2017-11-29T07:18:45.535Z,23.90
2017-11-29T07:21:20.790Z,21.60
2017-11-29T07:23:55.621Z,20.60
2017-11-29T07:26:30.145Z,22.83
2017-11-29T07:29:05.258Z,22.10
2017-11-29T07:31:40.715Z,25.50
2017-11-29T07:34:15.185Z,23.97
2017-11-29T07:36:50.052Z,23.00
2017-11-29T07:39:27.938Z,23.90
2017-11-29T07:42:02.715Z,26.70
2017-11-29T07:44:37.898Z,24.67
2017-11-29T07:47:12.721Z,22.23
2017-11-29T07:49:47.377Z,21.90
2017-11-29T07:52:22.206Z,23.60
2017-11-29T07:54:57.043Z,22.80
2017-11-29T07:57:31.662Z,25.40
2017-11-29T08:00:06.694Z,25.60
2017-11-29T08:02:41.604Z,25.43
2017-11-29T08:05:16.459Z,27.40
2017-11-29T08:07:51.489Z,25.13
2017-11-29T08:10:26.007Z,25.83
2017-11-29T08:13:00.834Z,27.90
2017-11-29T08:15:35.666Z,28.23
2017-11-29T08:18:10.435Z,31.30
2017-11-29T08:20:45.434Z,25.77
2017-11-29T08:23:20.154Z,27.07
2017-11-29T08:25:54.549Z,26.60
2017-11-29T08:28:29.231Z,23.93
2017-11-29T08:31:03.418Z,25.43
2017-11-29T08:33:38.417Z,25.50
2017-11-29T08:36:12.862Z,24.57
2017-11-29T08:38:47.578Z,29.10
2017-11-29T08:41:22.166Z,27.60
2017-11-29T08:43:57.050Z,27.90
2017-11-29T08:46:31.278Z,28.40
2017-11-29T08:49:06.303Z,26.80
2017-11-29T08:51:41.733Z,27.90
2017-11-29T08:54:16.698Z,30.00
2017-11-29T08:56:51.233Z,29.77
2017-11-29T08:59:26.234Z,28.23
2017-11-29T09:02:01.085Z,28.77
2017-11-29T09:04:35.894Z,28.13
2017-11-29T09:07:10.774Z,27.60
2017-11-29T09:09:45.425Z,26.87
2017-11-29T09:12:20.202Z,26.17
2017-11-29T09:14:55.133Z,21.43
2017-11-29T09:17:29.474Z,24.50
2017-11-29T09:20:04.510Z,28.53
2017-11-29T09:22:39.761Z,24.77
2017-11-29T09:25:14.452Z,27.60
2017-11-29T09:27:49.118Z,24.33
2017-11-29T09:30:23.837Z,27.20
2017-11-29T09:32:58.646Z,25.70
2017-11-29T09:35:33.307Z,22.57
2017-11-29T09:38:08.962Z,24.47
2017-11-29T09:40:43.682Z,22.73
2017-11-29T09:43:18.291Z,23.60
2017-11-29T09:45:52.915Z,15.93
2017-11-29T09:48:27.651Z,23.57
2017-11-29T09:51:02.498Z,22.77
2017-11-29T09:53:37.250Z,22.80
2017-11-29T09:56:11.882Z,25.07
2017-11-29T09:58:46.562Z,21.47
2017-11-29T10:01:21.434Z,25.43
2017-11-29T10:03:55.902Z,26.47
2017-11-29T10:06:30.561Z,24.73
2017-11-29T10:09:05.133Z,23.67
2017-11-29T10:11:39.894Z,24.23
2017-11-29T10:14:16.784Z,23.13
2017-11-29T10:16:51.390Z,22.17
2017-11-29T10:19:25.734Z,22.67
2017-11-29T10:22:00.046Z,25.50
2017-11-29T10:24:34.631Z,25.63
2017-11-29T10:27:09.207Z,24.67
2017-11-29T10:29:43.549Z,28.00
2017-11-29T10:32:18.295Z,27.40
2017-11-29T10:34:53.117Z,24.43
2017-11-29T10:37:27.416Z,22.47
2017-11-29T10:40:02.018Z,22.07
2017-11-29T10:42:36.832Z,22.07
2017-11-29T10:45:11.645Z,17.00
2017-11-29T10:47:46.226Z,20.17
2017-11-29T10:50:21.107Z,19.80
2017-11-29T10:52:55.858Z,22.83
2017-11-29T10:55:30.657Z,26.00
2017-11-29T10:58:05.550Z,24.47
2017-11-29T11:00:40.322Z,24.10
2017-11-29T11:03:14.630Z,23.10
2017-11-29T11:05:49.163Z,21.20
2017-11-29T11:08:23.902Z,19.30
2017-11-29T11:10:58.510Z,22.20
2017-11-29T11:13:32.938Z,24.63
2017-11-29T11:16:07.790Z,25.60
2017-11-29T11:18:42.316Z,24.40
2017-11-29T11:21:17.111Z,22.47
2017-11-29T11:23:51.440Z,26.20
2017-11-29T11:26:26.597Z,19.97
2017-11-29T11:29:00.615Z,20.67
2017-11-29T11:31:35.326Z,17.57
2017-11-29T11:34:09.779Z,20.53
2017-11-29T11:36:44.597Z,21.40
2017-11-29T11:39:19.318Z,21.37
2017-11-29T11:41:54.005Z,21.43
2017-11-29T11:44:27.937Z,24.20
2017-11-29T11:47:01.919Z,22.73
2017-11-29T11:49:36.386Z,23.27
2017-11-29T11:52:11.264Z,23.10
2017-11-29T11:54:45.898Z,22.60
2017-11-29T11:57:20.400Z,24.60
2017-11-29T11:59:55.322Z,23.33
2017-11-29T12:02:30.047Z,22.80
2017-11-29T12:05:05.059Z,23.40
2017-11-29T12:07:39.850Z,22.47
2017-11-29T12:10:14.533Z,22.43
2017-11-29T12:12:49.317Z,23.57
2017-11-29T12:15:24.163Z,24.57
2017-11-29T12:17:58.856Z,22.70
2017-11-29T12:20:32.942Z,23.10
2017-11-29T12:23:07.890Z,27.10
2017-11-29T12:25:42.702Z,25.40
2017-11-29T12:28:17.506Z,22.90
2017-11-29T12:30:52.239Z,23.53
2017-11-29T12:33:26.912Z,26.53
2017-11-29T12:36:01.615Z,22.53
2017-11-29T12:38:36.570Z,19.37
2017-11-29T12:41:11.091Z,21.53
2017-11-29T12:43:45.897Z,18.33
2017-11-29T12:46:20.479Z,21.80
2017-11-29T12:49:06.450Z,20.90
2017-11-29T12:51:41.305Z,23.73
2017-11-29T12:54:15.698Z,23.87
2017-11-29T12:56:50.681Z,24.07
2017-11-29T12:59:25.146Z,27.47
2017-11-29T13:01:59.770Z,28.80
2017-11-29T13:04:34.477Z,30.80
2017-11-29T13:07:09.270Z,21.60
2017-11-29T13:09:44.033Z,22.80
2017-11-29T13:12:19.046Z,23.83
2017-11-29T13:14:54.066Z,21.20
2017-11-29T13:17:28.559Z,21.90
2017-11-29T13:20:03.142Z,21.93
2017-11-29T13:22:38.162Z,13.50
2017-11-29T13:25:12.832Z,20.73
2017-11-29T13:27:47.464Z,18.50
2017-11-29T13:30:21.850Z,17.00
2017-11-29T13:32:55.943Z,19.10
2017-11-29T13:35:30.739Z,18.80
2017-11-29T13:38:04.833Z,18.17
2017-11-29T13:40:39.554Z,17.70
2017-11-29T13:43:14.746Z,15.37
2017-11-29T13:45:49.043Z,18.70
2017-11-29T13:48:23.774Z,17.67
2017-11-29T13:50:58.657Z,18.03
2017-11-29T13:53:33.435Z,19.40
2017-11-29T13:56:08.035Z,17.97
2017-11-29T13:58:42.768Z,16.93
2017-11-29T14:01:17.495Z,17.80
2017-11-29T14:03:52.339Z,17.73
2017-11-29T14:06:27.043Z,15.03
2017-11-29T14:09:02.007Z,16.30
2017-11-29T14:11:36.907Z,18.40
2017-11-29T14:14:11.695Z,17.53
2017-11-29T14:16:46.422Z,17.93
2017-11-29T14:19:21.446Z,17.43
2017-11-29T14:21:56.146Z,16.80
2017-11-29T14:24:30.742Z,17.33
2017-11-29T14:27:05.393Z,15.97
2017-11-29T14:29:39.954Z,16.23
2017-11-29T14:32:14.778Z,16.80
2017-11-29T14:34:49.813Z,17.17
2017-11-29T14:37:24.898Z,19.10
2017-11-29T14:39:59.631Z,17.77
2017-11-29T14:42:33.974Z,20.00
2017-11-29T14:45:08.817Z,18.23
2017-11-29T14:47:43.338Z,17.83
2017-11-29T14:50:18.319Z,19.37
2017-11-29T14:52:52.904Z,19.67
2017-11-29T14:55:27.744Z,17.67
2017-11-29T14:58:02.870Z,15.50
2017-11-29T15:00:37.805Z,17.37
2017-11-29T15:03:12.621Z,18.53
2017-11-29T15:05:47.656Z,18.30
2017-11-29T15:08:23.062Z,19.07
2017-11-29T15:10:58.334Z,19.77
2017-11-29T15:13:33.167Z,15.10
2017-11-29T15:16:09.482Z,20.03
2017-11-29T15:18:43.987Z,19.53
2017-11-29T15:21:18.610Z,20.93
2017-11-29T15:23:53.701Z,19.70
2017-11-29T15:26:28.514Z,20.47
2017-11-29T15:29:03.447Z,20.10
2017-11-29T15:31:37.942Z,18.93
2017-11-29T15:34:13.057Z,20.33
2017-11-29T15:36:47.982Z,23.07
2017-11-29T15:39:22.510Z,19.87
2017-11-29T15:41:57.366Z,21.23
2017-11-29T15:44:33.470Z,21.03
2017-11-29T15:47:08.814Z,20.77
2017-11-29T15:49:43.746Z,21.97
2017-11-29T15:52:18.343Z,22.00
2017-11-29T15:54:53.104Z,21.23
2017-11-29T15:57:28.336Z,19.53
2017-11-29T16:00:03.341Z,20.57
2017-11-29T16:02:37.866Z,22.40
2017-11-29T16:05:12.830Z,21.07
2017-11-29T16:07:47.615Z,21.90
2017-11-29T16:10:22.506Z,18.90
2017-11-29T16:12:57.191Z,22.40
2017-11-29T16:15:32.147Z,23.10
2017-11-29T16:18:06.819Z,26.47
2017-11-29T16:20:42.087Z,23.77
2017-11-29T16:23:16.378Z,22.80
2017-11-29T16:25:51.431Z,24.90
2017-11-29T16:28:25.943Z,20.97
2017-11-29T16:31:00.797Z,24.80
2017-11-29T16:33:35.745Z,25.90
2017-11-29T16:36:10.190Z,21.63
2017-11-29T16:38:45.147Z,24.60
2017-11-29T16:41:20.033Z,20.97
2017-11-29T16:43:54.881Z,34.03
2017-11-29T16:46:29.753Z,29.40
2017-11-29T16:49:04.202Z,25.57
2017-11-29T16:51:38.678Z,21.90
2017-11-29T16:54:13.712Z,17.10
2017-11-29T16:56:48.778Z,23.57
2017-11-29T16:59:23.526Z,21.60
2017-11-29T17:01:58.378Z,20.43
2017-11-29T17:04:32.686Z,22.97
2017-11-29T17:07:07.768Z,20.30
2017-11-29T17:09:42.438Z,26.73
2017-11-29T17:12:17.266Z,36.70
2017-11-29T17:14:51.577Z,27.63
2017-11-29T17:17:26.317Z,26.00
2017-11-29T17:20:01.447Z,25.33
2017-11-29T17:22:35.661Z,22.93
2017-11-29T17:25:09.818Z,23.30
2017-11-29T17:27:44.804Z,21.83
2017-11-29T17:30:19.294Z,22.30
2017-11-29T17:32:54.397Z,21.50
2017-11-29T17:35:29.634Z,20.37
2017-11-29T17:38:04.030Z,20.43
2017-11-29T17:40:39.294Z,21.10
2017-11-29T17:43:14.096Z,20.13
2017-11-29T17:45:49.104Z,20.90
2017-11-29T17:48:23.570Z,19.73
2017-11-29T17:50:58.718Z,18.40
2017-11-29T17:53:33.031Z,20.90
2017-11-29T17:56:07.962Z,19.30
2017-11-29T17:58:42.564Z,18.90
2017-11-29T18:01:17.198Z,22.43
2017-11-29T18:03:52.349Z,18.50
2017-11-29T18:06:26.874Z,19.63
2017-11-29T18:09:01.780Z,19.97
2017-11-29T18:11:36.550Z,20.30
2017-11-29T18:14:11.234Z,21.90
2017-11-29T18:16:46.114Z,20.40
2017-11-29T18:19:21.070Z,21.40
2017-11-29T18:21:55.727Z,20.83
2017-11-29T18:24:29.986Z,21.80
2017-11-29T18:27:04.613Z,21.73
2017-11-29T18:29:39.671Z,23.43
2017-11-29T18:32:14.250Z,31.17
2017-11-29T18:34:49.386Z,23.10
2017-11-29T18:37:24.314Z,21.90
2017-11-29T18:39:58.885Z,23.40
2017-11-29T18:42:34.221Z,23.90
2017-11-29T18:45:09.745Z,24.50
2017-11-29T18:47:43.970Z,27.83
2017-11-29T18:50:19.057Z,21.77
2017-11-29T18:52:54.054Z,21.77
2017-11-29T18:55:29.302Z,21.30
2017-11-29T18:58:03.779Z,29.20
2017-11-29T19:00:38.541Z,28.17
2017-11-29T19:03:13.654Z,30.17
2017-11-29T19:05:48.254Z,55.40
2017-11-29T19:08:22.817Z,27.87
2017-11-29T19:10:57.814Z,23.53
2017-11-29T19:13:33.254Z,31.83
2017-11-29T19:16:07.985Z,30.00
2017-11-29T19:18:42.430Z,28.57
2017-11-29T19:21:17.568Z,26.73
2017-11-29T19:23:52.817Z,26.33
2017-11-29T19:26:27.874Z,25.73
2017-11-29T19:29:02.534Z,25.93
2017-11-29T19:31:37.325Z,29.57
2017-11-29T19:34:11.917Z,26.50
2017-11-29T19:36:47.093Z,24.00
2017-11-29T19:39:21.799Z,24.93
2017-11-29T19:41:56.634Z,21.70
2017-11-29T19:44:31.154Z,22.40
2017-11-29T19:47:06.118Z,26.60
2017-11-29T19:49:41.137Z,23.73
2017-11-29T19:52:15.965Z,24.27
2017-11-29T19:54:50.946Z,23.53
2017-11-29T19:57:26.070Z,25.10
2017-11-29T20:00:00.838Z,24.60
2017-11-29T20:02:35.705Z,25.63
2017-11-29T20:05:10.435Z,23.80
2017-11-29T20:07:45.658Z,24.63
2017-11-29T20:10:20.706Z,25.60
2017-11-29T20:12:55.625Z,24.87
2017-11-29T20:15:29.745Z,24.30
2017-11-29T20:18:05.197Z,27.70
2017-11-29T20:20:40.250Z,25.07
2017-11-29T20:23:14.974Z,25.93
2017-11-29T20:25:49.939Z,26.30
2017-11-29T20:28:24.755Z,23.73
2017-11-29T20:30:59.913Z,23.40
2017-11-29T20:33:34.799Z,24.60
2017-11-29T20:36:09.849Z,22.80
2017-11-29T20:38:44.566Z,23.57
2017-11-29T20:41:19.370Z,22.73
2017-11-29T20:43:54.225Z,24.17
2017-11-29T20:46:29.073Z,23.00
2017-11-29T20:49:03.905Z,25.77
2017-11-29T20:51:39.033Z,26.20
2017-11-29T20:54:13.837Z,24.23
2017-11-29T20:56:48.994Z,25.07
2017-11-29T20:59:23.937Z,23.50
2017-11-29T21:01:59.173Z,24.50
2017-11-29T21:04:34.222Z,24.47
2017-11-29T21:07:09.402Z,27.60
2017-11-29T21:09:44.102Z,27.20
2017-11-29T21:12:18.647Z,26.20
2017-11-29T21:14:54.137Z,27.77
2017-11-29T21:17:28.629Z,25.80
2017-11-29T21:20:03.693Z,25.57
2017-11-29T21:22:38.317Z,26.20
2017-11-29T21:25:12.856Z,27.93
2017-11-29T21:27:47.898Z,28.13
2017-11-29T21:30:22.609Z,28.20
2017-11-29T21:32:57.595Z,26.90
2017-11-29T21:35:32.208Z,28.20
2017-11-29T21:38:07.240Z,25.90
2017-11-29T21:40:42.053Z,24.80
2017-11-29T21:43:17.393Z,29.70
2017-11-29T21:45:52.302Z,25.10
2017-11-29T21:48:26.688Z,26.30
2017-11-29T21:51:01.158Z,27.70
2017-11-29T21:53:36.192Z,24.90
2017-11-29T21:56:11.140Z,27.30
2017-11-29T21:58:45.746Z,25.50
2017-11-29T22:01:20.628Z,27.40
2017-11-29T22:03:55.342Z,22.63
2017-11-29T22:06:30.070Z,28.90
2017-11-29T22:09:04.353Z,25.60
2017-11-29T22:11:39.483Z,26.47
2017-11-29T22:14:14.233Z,26.13
2017-11-29T22:16:49.112Z,19.30
2017-11-29T22:19:24.081Z,28.07
2017-11-29T22:21:58.585Z,25.47
2017-11-29T22:24:33.524Z,26.20
2017-11-29T22:27:07.891Z,24.30
2017-11-29T22:29:42.697Z,22.50
2017-11-29T22:32:17.734Z,23.07
2017-11-29T22:34:52.510Z,21.50
2017-11-29T22:37:27.463Z,25.87
2017-11-29T22:40:02.577Z,26.10
2017-11-29T22:42:37.409Z,26.80
2017-11-29T22:45:12.237Z,26.57
2017-11-29T22:47:46.946Z,27.13
2017-11-29T22:50:21.869Z,25.63
2017-11-29T22:52:56.707Z,29.00
2017-11-29T22:55:31.526Z,23.70
2017-11-29T22:58:06.682Z,26.17
2017-11-29T23:00:41.811Z,29.70
2017-11-29T23:03:16.273Z,26.50
2017-11-29T23:05:51.304Z,24.00
2017-11-29T23:08:25.941Z,25.10
2017-11-29T23:11:00.919Z,26.83
2017-11-29T23:13:35.831Z,30.23
2017-11-29T23:16:10.809Z,25.00
2017-11-29T23:18:45.289Z,24.87
2017-11-29T23:21:20.242Z,24.77
2017-11-29T23:23:54.626Z,30.17
2017-11-29T23:26:29.535Z,27.10
2017-11-29T23:29:04.248Z,27.33
2017-11-29T23:31:39.266Z,27.67
2017-11-29T23:34:13.976Z,26.87
2017-11-29T23:36:49.030Z,27.20
2017-11-29T23:39:23.703Z,25.60
2017-11-29T23:41:58.734Z,24.77
2017-11-29T23:44:33.421Z,29.53
2017-11-29T23:47:08.185Z,28.87
2017-11-29T23:49:42.885Z,28.00
2017-11-29T23:52:17.518Z,23.43
2017-11-29T23:54:52.341Z,24.97
2017-11-29T23:57:26.841Z,26.60
